This is the latest recevied weather packets stored in our database for station/object N6WDO. If no packets are shown the sender has not sent any weather packets the latest 10 day(s).
| Time | Temp. | Humidity | Pressure | Rain* | Wind** | Luminosity | Snow |
|---|---|---|---|---|---|---|---|
| 1777812981 | 11.67° C | 80% | 1011.1 hPa | 0 mm | - | 1 W/m² | - |
| 1777812679 | 12.22° C | 79% | 1011.1 hPa | 0 mm | - | 1 W/m² | - |
| 1777812375 | 12.22° C | 78% | 1011.4 hPa | 0 mm | - | 0 W/m² | - |
| 1777812074 | 12.22° C | 77% | 1011.4 hPa | 0 mm | - | 0 W/m² | - |
| 1777811772 | 12.22° C | 78% | 1011.4 hPa | 0 mm | - | 0 W/m² | - |
| 1777811468 | 12.78° C | 77% | 1011.4 hPa | 0 mm | - | 0 W/m² | - |
| 1777811164 | 13.33° C | 74% | 1011.3 hPa | 0 mm | - | 0 W/m² | - |
| 1777810862 | 13.33° C | 71% | 1011.1 hPa | 0 mm | - | 0 W/m² | - |
| 1777810558 | 13.33° C | 75% | 1011 hPa | 0 mm | - | 0 W/m² | - |
| 1777810255 | 16.11° C | 66% | 1011 hPa | 0 mm | - | 0 W/m² | - |
| 1777809951 | 15° C | 60% | 1011.1 hPa | 0 mm | - | 0 W/m² | - |
| 1777809649 | 13.33° C | 72% | 1011.3 hPa | 0 mm | - | 0 W/m² | - |
| 1777809347 | 12.78° C | 78% | 1011.4 hPa | 0 mm | - | 0 W/m² | - |
| 1777809044 | 13.33° C | 77% | 1011.1 hPa | 0 mm | - | 0 W/m² | - |
| 1777808741 | 13.33° C | 76% | 1011.1 hPa | 0 mm | - | 0 W/m² | - |
| 1777808438 | 12.78° C | 77% | 1011.5 hPa | 0 mm | - | 0 W/m² | - |
| 1777808136 | 13.33° C | 78% | 1011.1 hPa | 0 mm | - | 0 W/m² | - |
| 1777807834 | 13.33° C | 80% | 1011.4 hPa | 0 mm | - | 0 W/m² | - |
| 1777807532 | 13.33° C | 76% | 1011.4 hPa | 0 mm | - | 0 W/m² | - |
| 1777807227 | 12.78° C | 77% | 1011.4 hPa | 0 mm | - | 0 W/m² | - |
| 1777806924 | 12.78° C | 78% | 1011.4 hPa | 0 mm | - | 0 W/m² | - |
| 1777806621 | 12.78° C | 79% | 1011.1 hPa | 0 mm | - | 0 W/m² | - |
| 1777806317 | 12.78° C | 80% | 1011.3 hPa | 0 mm | - | 0 W/m² | - |
| 1777806014 | 12.78° C | 81% | 1011.4 hPa | 0 mm | - | 0 W/m² | - |
| 1777805710 | 12.78° C | 76% | 1011.3 hPa | 0 mm | - | 0 W/m² | - |
* Rain latest hour (hover to see other rain measurements)
** Current wind speed in m/s (hover to see current wind gust speed)